CBB3 weather

Public forecast

Using degrees Celsius for public forecast. Weather courtesy of forecast.io.

Closest aviation weather report (METAR) to Lake Muskoka/Boyd Bay Seaplane Base

Closest report is Muskoka Airport, 6.4 nm (11.8 km) SE. Retrieved 2020/08/09 07:43 UTC (16 minutes ago):

CYQA 090743Z AUTO 21004KT 5SM +RA BR FEW034 OVC055 18/16 A3005 RMK SLP175 DENSITY ALT 1300FT

Closest aviation forecast (TAF) to Lake Muskoka/Boyd Bay Seaplane Base

Forecast is more than 6 hours old.

Closest forecast is Muskoka Airport, 6.4 nm (11.8 km) SE. Retrieved 2020/08/08 20:00 UTC (12 hours ago):

TAF CYQA 081938Z 0820/0902 24008KT P6SM FEW070 BECMG 0900/0902 VRB03KT RMK FCST BASED ON AUTO OBS NXT FCST WILL BE ISSUED AT 091145Z